sensor_id;sensor_type;location;lat;lon;timestamp;P1;durP1;ratioP1;P2;durP2;ratioP2
70927;SDS011;58587;53.034;18.576;2023-07-29T00:00:19;7.03;;;4.33;;
70927;SDS011;58587;53.034;18.576;2023-07-29T00:02:44;5.60;;;4.07;;
70927;SDS011;58587;53.034;18.576;2023-07-29T00:05:10;6.03;;;4.10;;
70927;SDS011;58587;53.034;18.576;2023-07-29T00:07:36;6.53;;;4.53;;
70927;SDS011;58587;53.034;18.576;2023-07-29T00:10:01;10.13;;;4.30;;
70927;SDS011;58587;53.034;18.576;2023-07-29T00:12:28;5.23;;;4.60;;
70927;SDS011;58587;53.034;18.576;2023-07-29T00:14:53;5.25;;;4.03;;
70927;SDS011;58587;53.034;18.576;2023-07-29T00:17:19;6.67;;;4.20;;
70927;SDS011;58587;53.034;18.576;2023-07-29T00:19:45;4.90;;;4.10;;
70927;SDS011;58587;53.034;18.576;2023-07-29T00:22:10;8.30;;;5.13;;
70927;SDS011;58587;53.034;18.576;2023-07-29T00:24:36;10.43;;;5.43;;
70927;SDS011;58587;53.034;18.576;2023-07-29T00:27:01;9.73;;;5.60;;
70927;SDS011;58587;53.034;18.576;2023-07-29T00:29:27;9.93;;;5.37;;
70927;SDS011;58587;53.034;18.576;2023-07-29T00:31:52;8.00;;;5.20;;
70927;SDS011;58587;53.034;18.576;2023-07-29T00:34:17;6.87;;;4.80;;
70927;SDS011;58587;53.034;18.576;2023-07-29T00:36:44;6.10;;;4.53;;
70927;SDS011;58587;53.034;18.576;2023-07-29T00:39:12;7.82;;;4.53;;
70927;SDS011;58587;53.034;18.576;2023-07-29T00:41:38;7.87;;;4.67;;
70927;SDS011;58587;53.034;18.576;2023-07-29T00:44:03;11.23;;;5.27;;
70927;SDS011;58587;53.034;18.576;2023-07-29T00:46:28;9.10;;;5.00;;
70927;SDS011;58587;53.034;18.576;2023-07-29T00:48:54;9.02;;;5.85;;
70927;SDS011;58587;53.034;18.576;2023-07-29T00:51:20;8.47;;;5.20;;
70927;SDS011;58587;53.034;18.576;2023-07-29T00:53:46;6.20;;;4.88;;
70927;SDS011;58587;53.034;18.576;2023-07-29T00:56:11;5.13;;;4.50;;
70927;SDS011;58587;53.034;18.576;2023-07-29T00:58:37;11.30;;;6.03;;
70927;SDS011;58587;53.034;18.576;2023-07-29T01:01:03;13.57;;;8.10;;
70927;SDS011;58587;53.034;18.576;2023-07-29T01:03:28;8.97;;;6.33;;
70927;SDS011;58587;53.034;18.576;2023-07-29T01:06:15;8.10;;;5.57;;
70927;SDS011;58587;53.034;18.576;2023-07-29T01:09:03;7.18;;;4.93;;
70927;SDS011;58587;53.034;18.576;2023-07-29T01:17:00;5.23;;;4.40;;
70927;SDS011;58587;53.034;18.576;2023-07-29T01:22:19;8.95;;;4.35;;
70927;SDS011;58587;53.034;18.576;2023-07-29T01:24:46;6.20;;;4.55;;
70927;SDS011;58587;53.034;18.576;2023-07-29T01:27:11;6.57;;;4.47;;
70927;SDS011;58587;53.034;18.576;2023-07-29T01:29:36;6.83;;;4.87;;
70927;SDS011;58587;53.034;18.576;2023-07-29T01:32:04;6.03;;;4.57;;
70927;SDS011;58587;53.034;18.576;2023-07-29T01:34:39;5.22;;;4.70;;
70927;SDS011;58587;53.034;18.576;2023-07-29T01:37:09;6.63;;;4.75;;
70927;SDS011;58587;53.034;18.576;2023-07-29T01:39:41;10.25;;;5.90;;
70927;SDS011;58587;53.034;18.576;2023-07-29T01:42:09;10.70;;;5.63;;
70927;SDS011;58587;53.034;18.576;2023-07-29T01:44:35;10.13;;;6.65;;
70927;SDS011;58587;53.034;18.576;2023-07-29T01:47:01;12.57;;;7.70;;
70927;SDS011;58587;53.034;18.576;2023-07-29T01:49:26;14.17;;;7.70;;
70927;SDS011;58587;53.034;18.576;2023-07-29T01:51:52;10.57;;;7.00;;
70927;SDS011;58587;53.034;18.576;2023-07-29T01:54:18;9.85;;;6.60;;
70927;SDS011;58587;53.034;18.576;2023-07-29T01:56:43;8.33;;;6.17;;
70927;SDS011;58587;53.034;18.576;2023-07-29T01:59:08;7.47;;;5.50;;
70927;SDS011;58587;53.034;18.576;2023-07-29T02:01:34;7.10;;;5.27;;
70927;SDS011;58587;53.034;18.576;2023-07-29T02:03:59;7.23;;;5.67;;
70927;SDS011;58587;53.034;18.576;2023-07-29T02:06:24;9.20;;;5.60;;
70927;SDS011;58587;53.034;18.576;2023-07-29T02:08:50;7.63;;;5.10;;
70927;SDS011;58587;53.034;18.576;2023-07-29T02:11:15;7.23;;;5.00;;
70927;SDS011;58587;53.034;18.576;2023-07-29T02:13:41;8.00;;;5.00;;
70927;SDS011;58587;53.034;18.576;2023-07-29T02:16:06;7.65;;;5.38;;
70927;SDS011;58587;53.034;18.576;2023-07-29T02:18:32;7.17;;;5.23;;
70927;SDS011;58587;53.034;18.576;2023-07-29T02:20:57;11.53;;;7.77;;
70927;SDS011;58587;53.034;18.576;2023-07-29T02:23:22;11.40;;;7.00;;
70927;SDS011;58587;53.034;18.576;2023-07-29T02:25:48;9.83;;;6.63;;
70927;SDS011;58587;53.034;18.576;2023-07-29T02:28:13;6.47;;;5.10;;
70927;SDS011;58587;53.034;18.576;2023-07-29T02:30:40;5.73;;;4.93;;
70927;SDS011;58587;53.034;18.576;2023-07-29T02:33:06;7.68;;;5.65;;
70927;SDS011;58587;53.034;18.576;2023-07-29T02:35:31;6.83;;;5.60;;
70927;SDS011;58587;53.034;18.576;2023-07-29T02:37:57;6.83;;;5.27;;
70927;SDS011;58587;53.034;18.576;2023-07-29T02:40:22;6.53;;;5.17;;
70927;SDS011;58587;53.034;18.576;2023-07-29T02:42:50;12.93;;;6.53;;
70927;SDS011;58587;53.034;18.576;2023-07-29T02:45:15;9.57;;;6.07;;
70927;SDS011;58587;53.034;18.576;2023-07-29T02:47:40;9.03;;;5.37;;
70927;SDS011;58587;53.034;18.576;2023-07-29T02:50:06;7.50;;;5.07;;
70927;SDS011;58587;53.034;18.576;2023-07-29T02:52:31;8.48;;;5.10;;
70927;SDS011;58587;53.034;18.576;2023-07-29T02:54:57;8.83;;;5.60;;
70927;SDS011;58587;53.034;18.576;2023-07-29T02:57:22;9.40;;;6.00;;
70927;SDS011;58587;53.034;18.576;2023-07-29T02:59:47;8.17;;;5.73;;
70927;SDS011;58587;53.034;18.576;2023-07-29T03:02:12;11.07;;;6.50;;
70927;SDS011;58587;53.034;18.576;2023-07-29T03:04:38;21.77;;;8.73;;
70927;SDS011;58587;53.034;18.576;2023-07-29T03:07:03;16.52;;;8.30;;
70927;SDS011;58587;53.034;18.576;2023-07-29T03:09:28;21.33;;;8.07;;
70927;SDS011;58587;53.034;18.576;2023-07-29T03:11:54;15.43;;;7.90;;
70927;SDS011;58587;53.034;18.576;2023-07-29T03:14:20;16.63;;;7.77;;
70927;SDS011;58587;53.034;18.576;2023-07-29T03:16:46;12.30;;;7.78;;
70927;SDS011;58587;53.034;18.576;2023-07-29T03:19:12;15.37;;;7.60;;
70927;SDS011;58587;53.034;18.576;2023-07-29T03:21:37;11.25;;;6.63;;
70927;SDS011;58587;53.034;18.576;2023-07-29T03:24:03;9.93;;;5.73;;
70927;SDS011;58587;53.034;18.576;2023-07-29T03:26:28;19.40;;;6.90;;
70927;SDS011;58587;53.034;18.576;2023-07-29T03:28:53;7.90;;;5.93;;
70927;SDS011;58587;53.034;18.576;2023-07-29T03:31:19;8.27;;;5.67;;
70927;SDS011;58587;53.034;18.576;2023-07-29T03:33:44;10.20;;;6.03;;
70927;SDS011;58587;53.034;18.576;2023-07-29T03:36:09;12.13;;;6.47;;
70927;SDS011;58587;53.034;18.576;2023-07-29T03:38:35;23.17;;;6.57;;
70927;SDS011;58587;53.034;18.576;2023-07-29T03:41:04;19.67;;;5.20;;
70927;SDS011;58587;53.034;18.576;2023-07-29T03:43:30;48.20;;;6.30;;
70927;SDS011;58587;53.034;18.576;2023-07-29T03:45:55;51.07;;;5.93;;
70927;SDS011;58587;53.034;18.576;2023-07-29T03:48:20;85.03;;;6.70;;
70927;SDS011;58587;53.034;18.576;2023-07-29T03:50:46;60.60;;;6.23;;
70927;SDS011;58587;53.034;18.576;2023-07-29T03:53:11;57.57;;;5.63;;
70927;SDS011;58587;53.034;18.576;2023-07-29T03:55:36;29.40;;;4.90;;
70927;SDS011;58587;53.034;18.576;2023-07-29T03:58:02;21.73;;;4.70;;
70927;SDS011;58587;53.034;18.576;2023-07-29T04:00:27;13.83;;;4.40;;
70927;SDS011;58587;53.034;18.576;2023-07-29T04:02:52;16.67;;;4.70;;
70927;SDS011;58587;53.034;18.576;2023-07-29T04:05:18;13.70;;;4.60;;
70927;SDS011;58587;53.034;18.576;2023-07-29T04:07:44;15.53;;;4.80;;
70927;SDS011;58587;53.034;18.576;2023-07-29T04:10:09;14.65;;;4.53;;
70927;SDS011;58587;53.034;18.576;2023-07-29T04:12:35;18.80;;;4.70;;
70927;SDS011;58587;53.034;18.576;2023-07-29T04:15:00;17.83;;;4.63;;
70927;SDS011;58587;53.034;18.576;2023-07-29T04:17:26;10.32;;;4.55;;
70927;SDS011;58587;53.034;18.576;2023-07-29T04:19:51;9.67;;;4.30;;
70927;SDS011;58587;53.034;18.576;2023-07-29T04:22:17;8.63;;;4.70;;
70927;SDS011;58587;53.034;18.576;2023-07-29T04:24:42;8.13;;;4.40;;
70927;SDS011;58587;53.034;18.576;2023-07-29T04:27:07;11.97;;;4.40;;
70927;SDS011;58587;53.034;18.576;2023-07-29T04:29:33;9.68;;;4.53;;
70927;SDS011;58587;53.034;18.576;2023-07-29T04:32:00;6.40;;;4.63;;
70927;SDS011;58587;53.034;18.576;2023-07-29T04:34:26;13.63;;;4.68;;
70927;SDS011;58587;53.034;18.576;2023-07-29T04:36:51;7.13;;;4.57;;
70927;SDS011;58587;53.034;18.576;2023-07-29T04:39:17;10.03;;;4.77;;
70927;SDS011;58587;53.034;18.576;2023-07-29T04:41:43;26.00;;;5.15;;
70927;SDS011;58587;53.034;18.576;2023-07-29T04:44:08;14.07;;;4.93;;
70927;SDS011;58587;53.034;18.576;2023-07-29T04:46:33;27.73;;;5.43;;
70927;SDS011;58587;53.034;18.576;2023-07-29T04:48:59;39.05;;;7.28;;
70927;SDS011;58587;53.034;18.576;2023-07-29T04:51:24;36.73;;;6.50;;
70927;SDS011;58587;53.034;18.576;2023-07-29T04:53:50;11.23;;;6.57;;
70927;SDS011;58587;53.034;18.576;2023-07-29T04:56:15;21.17;;;6.80;;
70927;SDS011;58587;53.034;18.576;2023-07-29T04:58:41;14.57;;;6.70;;
70927;SDS011;58587;53.034;18.576;2023-07-29T05:01:06;16.87;;;7.40;;
70927;SDS011;58587;53.034;18.576;2023-07-29T05:03:31;12.87;;;6.73;;
70927;SDS011;58587;53.034;18.576;2023-07-29T05:05:58;20.70;;;7.20;;
70927;SDS011;58587;53.034;18.576;2023-07-29T05:08:24;13.50;;;7.00;;
70927;SDS011;58587;53.034;18.576;2023-07-29T05:10:50;33.28;;;7.95;;
70927;SDS011;58587;53.034;18.576;2023-07-29T05:13:16;19.50;;;7.35;;
70927;SDS011;58587;53.034;18.576;2023-07-29T05:15:42;17.90;;;7.93;;
70927;SDS011;58587;53.034;18.576;2023-07-29T05:18:07;11.10;;;7.47;;
70927;SDS011;58587;53.034;18.576;2023-07-29T05:20:32;17.23;;;9.73;;
70927;SDS011;58587;53.034;18.576;2023-07-29T05:22:58;13.57;;;8.10;;
70927;SDS011;58587;53.034;18.576;2023-07-29T05:25:23;15.77;;;9.10;;
70927;SDS011;58587;53.034;18.576;2023-07-29T05:27:48;14.60;;;9.77;;
70927;SDS011;58587;53.034;18.576;2023-07-29T05:30:14;14.57;;;9.47;;
70927;SDS011;58587;53.034;18.576;2023-07-29T05:32:39;14.60;;;9.50;;
70927;SDS011;58587;53.034;18.576;2023-07-29T05:35:04;16.50;;;10.73;;
70927;SDS011;58587;53.034;18.576;2023-07-29T05:37:30;15.23;;;10.38;;
70927;SDS011;58587;53.034;18.576;2023-07-29T05:39:55;15.77;;;9.63;;
70927;SDS011;58587;53.034;18.576;2023-07-29T05:42:21;16.17;;;10.00;;
70927;SDS011;58587;53.034;18.576;2023-07-29T05:44:46;12.93;;;9.47;;
70927;SDS011;58587;53.034;18.576;2023-07-29T05:47:11;13.30;;;9.70;;
70927;SDS011;58587;53.034;18.576;2023-07-29T05:49:37;13.52;;;9.93;;
70927;SDS011;58587;53.034;18.576;2023-07-29T05:52:02;14.90;;;10.07;;
70927;SDS011;58587;53.034;18.576;2023-07-29T05:54:27;12.83;;;9.97;;
70927;SDS011;58587;53.034;18.576;2023-07-29T05:56:53;14.97;;;9.47;;
70927;SDS011;58587;53.034;18.576;2023-07-29T05:59:18;11.67;;;9.40;;
70927;SDS011;58587;53.034;18.576;2023-07-29T06:01:43;13.00;;;10.43;;
70927;SDS011;58587;53.034;18.576;2023-07-29T06:04:09;14.00;;;10.60;;
70927;SDS011;58587;53.034;18.576;2023-07-29T06:06:34;14.65;;;10.68;;
70927;SDS011;58587;53.034;18.576;2023-07-29T06:08:59;17.10;;;10.60;;
70927;SDS011;58587;53.034;18.576;2023-07-29T06:11:25;13.50;;;10.57;;
70927;SDS011;58587;53.034;18.576;2023-07-29T06:13:50;16.73;;;10.90;;
70927;SDS011;58587;53.034;18.576;2023-07-29T06:16:15;15.13;;;11.27;;
70927;SDS011;58587;53.034;18.576;2023-07-29T06:18:41;13.43;;;10.27;;
70927;SDS011;58587;53.034;18.576;2023-07-29T06:21:06;14.73;;;9.70;;
70927;SDS011;58587;53.034;18.576;2023-07-29T06:23:33;14.40;;;11.02;;
70927;SDS011;58587;53.034;18.576;2023-07-29T06:25:59;12.32;;;9.65;;
70927;SDS011;58587;53.034;18.576;2023-07-29T06:28:25;11.55;;;8.95;;
70927;SDS011;58587;53.034;18.576;2023-07-29T06:30:51;13.73;;;9.10;;
70927;SDS011;58587;53.034;18.576;2023-07-29T06:33:17;10.40;;;8.60;;
70927;SDS011;58587;53.034;18.576;2023-07-29T06:35:42;11.40;;;8.40;;
70927;SDS011;58587;53.034;18.576;2023-07-29T06:38:08;10.87;;;8.53;;
70927;SDS011;58587;53.034;18.576;2023-07-29T06:40:33;12.07;;;7.80;;
70927;SDS011;58587;53.034;18.576;2023-07-29T06:42:58;8.57;;;7.40;;
70927;SDS011;58587;53.034;18.576;2023-07-29T06:45:24;8.02;;;6.32;;
70927;SDS011;58587;53.034;18.576;2023-07-29T06:47:49;8.90;;;7.20;;
70927;SDS011;58587;53.034;18.576;2023-07-29T06:50:14;6.97;;;5.77;;
70927;SDS011;58587;53.034;18.576;2023-07-29T06:52:40;8.27;;;5.87;;
70927;SDS011;58587;53.034;18.576;2023-07-29T06:55:05;6.53;;;5.80;;
70927;SDS011;58587;53.034;18.576;2023-07-29T06:57:31;6.85;;;6.00;;
70927;SDS011;58587;53.034;18.576;2023-07-29T06:59:56;6.37;;;5.47;;
70927;SDS011;58587;53.034;18.576;2023-07-29T07:02:21;7.53;;;5.60;;
70927;SDS011;58587;53.034;18.576;2023-07-29T07:04:47;6.20;;;5.37;;
70927;SDS011;58587;53.034;18.576;2023-07-29T07:07:12;6.53;;;5.33;;
70927;SDS011;58587;53.034;18.576;2023-07-29T07:09:37;6.70;;;5.27;;
70927;SDS011;58587;53.034;18.576;2023-07-29T07:12:03;9.43;;;4.90;;
70927;SDS011;58587;53.034;18.576;2023-07-29T07:14:28;4.60;;;4.20;;
70927;SDS011;58587;53.034;18.576;2023-07-29T07:16:54;5.13;;;4.30;;
70927;SDS011;58587;53.034;18.576;2023-07-29T07:19:19;4.00;;;3.60;;
70927;SDS011;58587;53.034;18.576;2023-07-29T07:21:44;4.77;;;3.17;;
70927;SDS011;58587;53.034;18.576;2023-07-29T07:24:10;4.27;;;3.63;;
70927;SDS011;58587;53.034;18.576;2023-07-29T07:26:35;3.87;;;3.57;;
70927;SDS011;58587;53.034;18.576;2023-07-29T07:29:00;4.35;;;3.80;;
70927;SDS011;58587;53.034;18.576;2023-07-29T07:31:26;7.13;;;4.27;;
70927;SDS011;58587;53.034;18.576;2023-07-29T07:33:51;6.10;;;3.90;;
70927;SDS011;58587;53.034;18.576;2023-07-29T07:36:16;4.17;;;3.60;;
70927;SDS011;58587;53.034;18.576;2023-07-29T07:38:41;5.03;;;4.23;;
70927;SDS011;58587;53.034;18.576;2023-07-29T07:41:07;4.83;;;4.17;;
70927;SDS011;58587;53.034;18.576;2023-07-29T07:43:32;4.93;;;3.77;;
70927;SDS011;58587;53.034;18.576;2023-07-29T07:45:58;3.93;;;3.53;;
70927;SDS011;58587;53.034;18.576;2023-07-29T07:48:24;5.90;;;3.63;;
70927;SDS011;58587;53.034;18.576;2023-07-29T07:50:50;5.38;;;3.60;;
70927;SDS011;58587;53.034;18.576;2023-07-29T07:53:15;3.67;;;3.27;;
70927;SDS011;58587;53.034;18.576;2023-07-29T07:55:40;3.20;;;2.90;;
70927;SDS011;58587;53.034;18.576;2023-07-29T07:58:06;3.20;;;2.60;;
70927;SDS011;58587;53.034;18.576;2023-07-29T08:00:31;3.53;;;3.00;;
70927;SDS011;58587;53.034;18.576;2023-07-29T08:02:56;3.57;;;3.13;;
70927;SDS011;58587;53.034;18.576;2023-07-29T08:05:22;4.57;;;3.50;;
70927;SDS011;58587;53.034;18.576;2023-07-29T08:07:47;2.40;;;2.20;;
70927;SDS011;58587;53.034;18.576;2023-07-29T08:10:12;4.07;;;2.80;;
70927;SDS011;58587;53.034;18.576;2023-07-29T08:12:38;3.73;;;2.40;;
70927;SDS011;58587;53.034;18.576;2023-07-29T08:15:03;2.30;;;2.10;;
70927;SDS011;58587;53.034;18.576;2023-07-29T08:17:29;3.57;;;2.40;;
70927;SDS011;58587;53.034;18.576;2023-07-29T08:19:54;2.40;;;2.20;;
70927;SDS011;58587;53.034;18.576;2023-07-29T08:22:21;2.77;;;2.43;;
70927;SDS011;58587;53.034;18.576;2023-07-29T08:24:47;1.90;;;1.80;;
70927;SDS011;58587;53.034;18.576;2023-07-29T08:27:12;1.58;;;1.45;;
70927;SDS011;58587;53.034;18.576;2023-07-29T08:29:37;2.10;;;1.90;;
70927;SDS011;58587;53.034;18.576;2023-07-29T08:32:03;2.47;;;1.80;;
70927;SDS011;58587;53.034;18.576;2023-07-29T08:34:28;2.10;;;1.60;;
70927;SDS011;58587;53.034;18.576;2023-07-29T08:36:54;2.47;;;1.80;;
70927;SDS011;58587;53.034;18.576;2023-07-29T08:39:19;2.83;;;2.50;;
70927;SDS011;58587;53.034;18.576;2023-07-29T08:44:20;2.10;;;1.90;;
70927;SDS011;58587;53.034;18.576;2023-07-29T08:46:47;2.72;;;1.83;;
70927;SDS011;58587;53.034;18.576;2023-07-29T08:49:13;4.20;;;2.20;;
70927;SDS011;58587;53.034;18.576;2023-07-29T08:51:39;4.57;;;2.20;;
70927;SDS011;58587;53.034;18.576;2023-07-29T08:54:07;3.97;;;1.80;;
70927;SDS011;58587;53.034;18.576;2023-07-29T08:56:33;4.28;;;2.10;;
70927;SDS011;58587;53.034;18.576;2023-07-29T08:58:59;4.00;;;2.00;;
70927;SDS011;58587;53.034;18.576;2023-07-29T09:01:27;3.60;;;2.28;;
70927;SDS011;58587;53.034;18.576;2023-07-29T09:03:52;2.40;;;2.20;;
70927;SDS011;58587;53.034;18.576;2023-07-29T09:06:18;3.97;;;2.00;;
70927;SDS011;58587;53.034;18.576;2023-07-29T09:08:45;4.63;;;2.40;;
70927;SDS011;58587;53.034;18.576;2023-07-29T09:11:13;3.55;;;2.50;;
70927;SDS011;58587;53.034;18.576;2023-07-29T09:13:39;4.40;;;2.55;;
70927;SDS011;58587;53.034;18.576;2023-07-29T09:16:04;3.63;;;2.57;;
70927;SDS011;58587;53.034;18.576;2023-07-29T09:18:30;3.97;;;2.17;;
70927;SDS011;58587;53.034;18.576;2023-07-29T09:20:55;4.53;;;2.85;;
70927;SDS011;58587;53.034;18.576;2023-07-29T09:23:24;3.90;;;2.47;;
70927;SDS011;58587;53.034;18.576;2023-07-29T09:25:49;5.47;;;2.20;;
70927;SDS011;58587;53.034;18.576;2023-07-29T09:28:15;2.43;;;1.80;;
70927;SDS011;58587;53.034;18.576;2023-07-29T09:30:45;4.00;;;2.15;;
70927;SDS011;58587;53.034;18.576;2023-07-29T09:33:11;2.00;;;1.63;;
70927;SDS011;58587;53.034;18.576;2023-07-29T09:35:37;2.00;;;1.80;;
70927;SDS011;58587;53.034;18.576;2023-07-29T09:38:03;2.10;;;1.90;;
70927;SDS011;58587;53.034;18.576;2023-07-29T09:40:36;3.33;;;1.73;;
70927;SDS011;58587;53.034;18.576;2023-07-29T09:43:03;3.17;;;1.90;;
70927;SDS011;58587;53.034;18.576;2023-07-29T09:45:29;2.00;;;1.58;;
70927;SDS011;58587;53.034;18.576;2023-07-29T09:47:55;2.30;;;1.70;;
70927;SDS011;58587;53.034;18.576;2023-07-29T09:50:25;3.03;;;1.77;;
70927;SDS011;58587;53.034;18.576;2023-07-29T09:52:52;2.00;;;1.65;;
70927;SDS011;58587;53.034;18.576;2023-07-29T09:55:18;1.70;;;1.60;;
70927;SDS011;58587;53.034;18.576;2023-07-29T09:57:46;1.90;;;1.63;;
70927;SDS011;58587;53.034;18.576;2023-07-29T10:00:11;2.40;;;1.87;;
70927;SDS011;58587;53.034;18.576;2023-07-29T10:02:38;2.28;;;1.98;;
70927;SDS011;58587;53.034;18.576;2023-07-29T10:05:05;3.10;;;1.55;;
70927;SDS011;58587;53.034;18.576;2023-07-29T10:07:33;7.37;;;1.87;;
70927;SDS011;58587;53.034;18.576;2023-07-29T10:09:59;2.10;;;1.30;;
70927;SDS011;58587;53.034;18.576;2023-07-29T10:12:27;1.80;;;1.70;;
70927;SDS011;58587;53.034;18.576;2023-07-29T10:14:53;2.13;;;1.70;;
70927;SDS011;58587;53.034;18.576;2023-07-29T10:17:20;2.10;;;1.50;;
70927;SDS011;58587;53.034;18.576;2023-07-29T10:19:46;1.80;;;1.70;;
70927;SDS011;58587;53.034;18.576;2023-07-29T10:22:12;2.13;;;1.80;;
70927;SDS011;58587;53.034;18.576;2023-07-29T10:24:43;2.08;;;1.50;;
70927;SDS011;58587;53.034;18.576;2023-07-29T10:27:10;2.30;;;1.50;;
70927;SDS011;58587;53.034;18.576;2023-07-29T10:29:38;1.90;;;1.80;;
70927;SDS011;58587;53.034;18.576;2023-07-29T10:32:04;3.87;;;1.90;;
70927;SDS011;58587;53.034;18.576;2023-07-29T10:34:32;1.92;;;1.70;;
70927;SDS011;58587;53.034;18.576;2023-07-29T10:36:59;5.38;;;1.65;;
70927;SDS011;58587;53.034;18.576;2023-07-29T10:39:25;1.90;;;1.70;;
70927;SDS011;58587;53.034;18.576;2023-07-29T10:41:54;2.00;;;1.35;;
70927;SDS011;58587;53.034;18.576;2023-07-29T10:47:14;1.75;;;1.52;;
70927;SDS011;58587;53.034;18.576;2023-07-29T10:49:42;1.63;;;1.52;;
70927;SDS011;58587;53.034;18.576;2023-07-29T10:52:08;1.50;;;1.40;;
70927;SDS011;58587;53.034;18.576;2023-07-29T10:54:45;1.92;;;1.45;;
70927;SDS011;58587;53.034;18.576;2023-07-29T10:57:15;2.67;;;1.90;;
70927;SDS011;58587;53.034;18.576;2023-07-29T10:59:55;4.75;;;1.65;;
70927;SDS011;58587;53.034;18.576;2023-07-29T11:02:22;1.65;;;1.52;;
70927;SDS011;58587;53.034;18.576;2023-07-29T11:04:57;2.30;;;1.53;;
70927;SDS011;58587;53.034;18.576;2023-07-29T11:07:24;1.63;;;1.50;;
70927;SDS011;58587;53.034;18.576;2023-07-29T11:09:58;2.13;;;1.70;;
70927;SDS011;58587;53.034;18.576;2023-07-29T11:12:38;3.05;;;1.58;;
70927;SDS011;58587;53.034;18.576;2023-07-29T11:17:49;1.83;;;1.47;;
70927;SDS011;58587;53.034;18.576;2023-07-29T11:20:15;1.50;;;1.20;;
70927;SDS011;58587;53.034;18.576;2023-07-29T11:22:42;2.15;;;1.50;;
70927;SDS011;58587;53.034;18.576;2023-07-29T11:25:08;2.03;;;1.33;;
70927;SDS011;58587;53.034;18.576;2023-07-29T11:27:35;2.55;;;1.90;;
70927;SDS011;58587;53.034;18.576;2023-07-29T11:30:06;3.70;;;1.52;;
70927;SDS011;58587;53.034;18.576;2023-07-29T11:32:36;1.48;;;1.38;;
70927;SDS011;58587;53.034;18.576;2023-07-29T11:37:33;1.83;;;1.67;;
70927;SDS011;58587;53.034;18.576;2023-07-29T11:39:59;1.77;;;1.67;;
70927;SDS011;58587;53.034;18.576;2023-07-29T11:42:26;1.33;;;1.23;;
70927;SDS011;58587;53.034;18.576;2023-07-29T11:44:52;1.90;;;1.60;;
70927;SDS011;58587;53.034;18.576;2023-07-29T11:47:17;1.60;;;1.40;;
70927;SDS011;58587;53.034;18.576;2023-07-29T11:49:42;1.37;;;1.27;;
70927;SDS011;58587;53.034;18.576;2023-07-29T11:52:08;1.50;;;1.40;;
70927;SDS011;58587;53.034;18.576;2023-07-29T11:54:35;3.85;;;1.60;;
70927;SDS011;58587;53.034;18.576;2023-07-29T11:57:06;2.85;;;1.40;;
70927;SDS011;58587;53.034;18.576;2023-07-29T11:59:33;1.47;;;1.37;;
70927;SDS011;58587;53.034;18.576;2023-07-29T12:02:07;1.40;;;1.30;;
70927;SDS011;58587;53.034;18.576;2023-07-29T12:04:36;4.88;;;1.90;;
70927;SDS011;58587;53.034;18.576;2023-07-29T12:07:02;1.70;;;1.42;;
70927;SDS011;58587;53.034;18.576;2023-07-29T12:09:28;1.97;;;1.30;;
70927;SDS011;58587;53.034;18.576;2023-07-29T12:11:54;1.30;;;1.20;;
70927;SDS011;58587;53.034;18.576;2023-07-29T12:14:20;1.37;;;1.27;;
70927;SDS011;58587;53.034;18.576;2023-07-29T12:16:47;1.35;;;1.13;;
70927;SDS011;58587;53.034;18.576;2023-07-29T12:19:14;1.83;;;1.33;;
70927;SDS011;58587;53.034;18.576;2023-07-29T12:21:43;2.03;;;1.70;;
70927;SDS011;58587;53.034;18.576;2023-07-29T12:24:09;1.63;;;1.52;;
70927;SDS011;58587;53.034;18.576;2023-07-29T12:26:37;1.60;;;1.50;;
70927;SDS011;58587;53.034;18.576;2023-07-29T12:29:12;1.50;;;1.40;;
70927;SDS011;58587;53.034;18.576;2023-07-29T12:31:41;1.52;;;1.42;;
70927;SDS011;58587;53.034;18.576;2023-07-29T12:34:07;1.52;;;1.42;;
70927;SDS011;58587;53.034;18.576;2023-07-29T12:36:41;1.93;;;1.80;;
70927;SDS011;58587;53.034;18.576;2023-07-29T12:39:23;2.10;;;1.90;;
70927;SDS011;58587;53.034;18.576;2023-07-29T12:41:53;1.63;;;1.52;;
70927;SDS011;58587;53.034;18.576;2023-07-29T12:44:20;3.28;;;1.70;;
70927;SDS011;58587;53.034;18.576;2023-07-29T12:46:45;2.00;;;1.90;;
70927;SDS011;58587;53.034;18.576;2023-07-29T12:49:11;2.78;;;1.83;;
70927;SDS011;58587;53.034;18.576;2023-07-29T12:51:37;1.70;;;1.60;;
70927;SDS011;58587;53.034;18.576;2023-07-29T12:54:02;2.13;;;1.90;;
70927;SDS011;58587;53.034;18.576;2023-07-29T12:56:30;2.42;;;1.80;;
70927;SDS011;58587;53.034;18.576;2023-07-29T12:58:57;1.85;;;1.75;;
70927;SDS011;58587;53.034;18.576;2023-07-29T13:01:23;2.97;;;1.45;;
70927;SDS011;58587;53.034;18.576;2023-07-29T13:03:49;2.43;;;1.60;;
70927;SDS011;58587;53.034;18.576;2023-07-29T13:06:14;1.90;;;1.70;;
70927;SDS011;58587;53.034;18.576;2023-07-29T13:08:40;1.73;;;1.63;;
70927;SDS011;58587;53.034;18.576;2023-07-29T13:11:06;1.90;;;1.80;;
70927;SDS011;58587;53.034;18.576;2023-07-29T13:13:32;1.63;;;1.53;;
70927;SDS011;58587;53.034;18.576;2023-07-29T13:15:57;1.70;;;1.60;;
70927;SDS011;58587;53.034;18.576;2023-07-29T13:18:23;2.33;;;1.75;;
70927;SDS011;58587;53.034;18.576;2023-07-29T13:20:48;4.83;;;1.50;;
70927;SDS011;58587;53.034;18.576;2023-07-29T13:23:14;2.07;;;1.73;;
70927;SDS011;58587;53.034;18.576;2023-07-29T13:25:40;1.48;;;1.38;;
70927;SDS011;58587;53.034;18.576;2023-07-29T13:28:06;3.13;;;1.55;;
70927;SDS011;58587;53.034;18.576;2023-07-29T13:30:32;2.75;;;1.77;;
70927;SDS011;58587;53.034;18.576;2023-07-29T13:32:58;4.50;;;2.03;;
70927;SDS011;58587;53.034;18.576;2023-07-29T13:35:23;5.70;;;2.17;;
70927;SDS011;58587;53.034;18.576;2023-07-29T13:37:48;4.90;;;2.45;;
70927;SDS011;58587;53.034;18.576;2023-07-29T13:40:14;6.47;;;1.80;;
70927;SDS011;58587;53.034;18.576;2023-07-29T13:42:39;2.67;;;1.70;;
70927;SDS011;58587;53.034;18.576;2023-07-29T13:45:05;2.43;;;1.80;;
70927;SDS011;58587;53.034;18.576;2023-07-29T13:47:31;1.90;;;1.80;;
70927;SDS011;58587;53.034;18.576;2023-07-29T13:49:57;7.43;;;2.70;;
70927;SDS011;58587;53.034;18.576;2023-07-29T13:52:22;2.20;;;2.00;;
70927;SDS011;58587;53.034;18.576;2023-07-29T13:54:47;1.97;;;1.87;;
70927;SDS011;58587;53.034;18.576;2023-07-29T13:57:12;2.20;;;1.67;;
70927;SDS011;58587;53.034;18.576;2023-07-29T13:59:38;3.20;;;1.77;;
70927;SDS011;58587;53.034;18.576;2023-07-29T14:02:04;7.53;;;2.90;;
70927;SDS011;58587;53.034;18.576;2023-07-29T14:04:30;2.63;;;1.90;;
70927;SDS011;58587;53.034;18.576;2023-07-29T14:06:56;4.05;;;2.10;;
70927;SDS011;58587;53.034;18.576;2023-07-29T14:09:22;3.47;;;2.23;;
70927;SDS011;58587;53.034;18.576;2023-07-29T14:11:47;2.10;;;2.00;;
70927;SDS011;58587;53.034;18.576;2023-07-29T14:14:13;2.53;;;2.10;;
70927;SDS011;58587;53.034;18.576;2023-07-29T14:16:38;2.10;;;2.00;;
70927;SDS011;58587;53.034;18.576;2023-07-29T14:19:04;2.40;;;2.20;;
70927;SDS011;58587;53.034;18.576;2023-07-29T14:21:29;4.50;;;2.47;;
70927;SDS011;58587;53.034;18.576;2023-07-29T14:23:54;2.90;;;2.17;;
70927;SDS011;58587;53.034;18.576;2023-07-29T14:26:20;3.70;;;2.10;;
70927;SDS011;58587;53.034;18.576;2023-07-29T14:28:45;7.35;;;2.47;;
70927;SDS011;58587;53.034;18.576;2023-07-29T14:31:11;3.07;;;2.00;;
70927;SDS011;58587;53.034;18.576;2023-07-29T14:33:36;2.73;;;2.53;;
70927;SDS011;58587;53.034;18.576;2023-07-29T14:36:01;2.57;;;2.37;;
70927;SDS011;58587;53.034;18.576;2023-07-29T14:38:28;2.00;;;1.90;;
70927;SDS011;58587;53.034;18.576;2023-07-29T14:40:54;2.57;;;2.37;;
70927;SDS011;58587;53.034;18.576;2023-07-29T14:43:21;2.15;;;2.05;;